Time;durP1;ratioP1;P1;durP2;ratioP2;P2;SDS_P1;SDS_P2;PMS_P1;PMS_P2;Temp;Humidity;BMP_temperature;BMP_pressure;BME280_temperature;BME280_humidity;BME280_pressure;Samples;Min_cycle;Max_cycle;Signal;HPM_P1;HPM_P2
2022/11/11 00:01:01;;;;;;;;;12.75;12.00;;;;;11.97;67.78;102640.31;6308340;22;46647;-79
2022/11/11 00:03:28;;;;;;;;;9.75;8.50;;;;;11.63;67.83;102603.53;6336518;22;45388;-79
2022/11/11 00:05:53;;;;;;;;;10.50;10.00;;;;;11.94;68.10;102659.63;6308990;22;45386;-79
2022/11/11 00:08:19;;;;;;;;;13.00;11.50;;;;;11.88;67.87;102660.38;6312014;22;45402;-79
2022/11/11 00:10:44;;;;;;;;;10.50;10.50;;;;;11.51;67.53;102616.41;6311793;22;47705;-79
2022/11/11 00:13:10;;;;;;;;;11.00;11.00;;;;;11.46;67.91;102612.78;6313556;22;45174;-79
2022/11/11 00:15:37;;;;;;;;;11.50;11.50;;;;;11.47;67.79;102611.94;6338162;22;45420;-78
2022/11/11 00:26:36;;;;;;;;;38.00;33.25;;;;;11.35;68.69;102615.19;6214233;22;45343;-78
2022/11/11 00:29:01;;;;;;;;;16.00;14.25;;;;;11.59;68.66;102661.44;6213739;22;45427;-79
2022/11/11 00:31:26;;;;;;;;;19.75;14.25;;;;;11.22;69.02;102594.66;6244385;22;47854;-78
2022/11/11 00:33:53;;;;;;;;;20.50;19.25;;;;;11.29;68.72;102616.78;6341587;22;45302;-79
2022/11/11 00:36:18;;;;;;;;;11.75;10.00;;;;;11.22;69.03;102607.84;6312861;22;45386;-78
2022/11/11 00:38:44;;;;;;;;;13.25;11.50;;;;;11.32;68.50;102637.97;6339664;22;45376;-78
2022/11/11 00:41:12;;;;;;;;;13.00;10.25;;;;;11.33;68.64;102652.91;6313333;22;46984;-78
2022/11/11 00:43:41;;;;;;;;;11.75;8.75;;;;;11.38;68.76;102662.72;6311005;22;45436;-81
2022/11/11 00:51:44;;;;;;;;;;;;;;;;;;;;;
2022/11/11 00:54:13;;;;;;;;;11.00;10.00;;;;;11.14;69.04;102620.81;6340315;22;71341;-82
2022/11/11 00:56:50;;;;;;;;;9.50;8.50;;;;;11.21;69.09;102624.53;6313031;22;45331;-82
2022/11/11 00:59:42;;;;;;;;;;;;;;;;;;;;;
2022/11/11 01:02:28;;;;;;;;;10.50;9.50;;;;;11.59;69.49;102687.81;6340163;22;75083;-82
2022/11/11 01:05:14;;;;;;;;;10.75;10.00;;;;;11.52;69.50;102660.44;6312604;22;45365;-82
2022/11/11 01:07:50;;;;;;;;;11.00;8.00;;;;;11.35;69.41;102624.84;6312666;22;45398;-83
2022/11/11 01:10:46;;;;;;;;;;;;;;;;;;;;;
2022/11/11 01:13:31;;;;;;;;;7.25;7.25;;;;;11.67;69.02;102651.97;6336743;22;46216;-83
2022/11/11 01:16:07;;;;;;;;;13.00;12.50;;;;;11.86;68.83;102688.47;6329240;22;45222;-83
2022/11/11 01:18:37;;;;;;;;;8.00;8.00;;;;;11.87;69.13;102692.91;6341498;22;45213;-83
2022/11/11 01:21:12;;;;;;;;;10.00;9.00;;;;;11.81;69.32;102683.94;6341560;22;45258;-83
2022/11/11 01:23:44;;;;;;;;;10.75;9.75;;;;;11.42;68.85;102614.47;6312611;22;47956;-83
2022/11/11 01:26:29;;;;;;;;;15.75;14.50;;;;;11.84;69.17;102684.00;6312937;22;45240;-82
2022/11/11 01:28:58;;;;;;;;;13.00;12.00;;;;;11.83;69.04;102685.75;6312892;22;45294;-83
2022/11/11 01:31:24;;;;;;;;;13.25;11.50;;;;;11.41;69.30;102610.06;6311783;22;45417;-82
2022/11/11 01:33:50;;;;;;;;;12.75;10.50;;;;;11.85;69.31;102699.00;6340885;22;45471;-82
2022/11/11 01:36:21;;;;;;;;;11.75;10.25;;;;;11.66;69.43;102655.47;6312755;22;45359;-82
2022/11/11 01:38:51;;;;;;;;;6.25;6.25;;;;;11.90;69.38;102694.75;6341121;22;45352;-80
2022/11/11 01:41:31;;;;;;;;;11.00;10.00;;;;;11.84;69.32;102678.72;6312653;22;45362;-81
2022/11/11 01:44:20;;;;;;;;;14.75;13.75;;;;;11.93;69.38;102693.91;6312914;22;47050;-81
2022/11/11 01:47:03;;;;;;;;;10.00;10.00;;;;;11.46;69.17;102610.16;6312415;22;45213;-81
2022/11/11 01:49:49;;;;;;;;;14.00;13.00;;;;;11.88;69.03;102692.06;6312703;22;45406;-81
2022/11/11 01:52:32;;;;;;;;;13.75;10.00;;;;;11.83;69.06;102679.56;6339365;22;45445;-81
2022/11/11 01:55:16;;;;;;;;;17.00;16.50;;;;;11.90;69.27;102700.91;6311932;22;46714;-81
2022/11/11 01:58:27;;;;;;;;;10.75;10.75;;;;;11.52;69.42;102623.50;6341233;22;45415;-80
2022/11/11 02:01:02;;;;;;;;;10.50;9.00;;;;;11.97;69.07;102695.75;6304632;22;45455;-81
2022/11/11 02:03:42;;;;;;;;;;;;;;;;;;;;;
2022/11/11 02:06:18;;;;;;;;;12.00;11.25;;;;;11.75;69.02;102652.13;6339492;22;75567;-81
2022/11/11 02:08:44;;;;;;;;;12.25;10.50;;;;;11.68;69.20;102643.16;6338768;22;45583;-82
2022/11/11 02:14:34;;;;;;;;;13.50;11.00;;;;;11.63;69.00;102632.53;6339702;22;45476;-81
2022/11/11 02:17:05;;;;;;;;;;;;;;;;;;;;;
2022/11/11 02:19:55;;;;;;;;;12.25;10.25;;;;;11.78;69.02;102646.91;6340009;22;73322;-81
2022/11/11 02:22:26;;;;;;;;;10.00;9.00;;;;;11.72;69.07;102633.59;6312059;22;45207;-80
2022/11/11 02:24:53;;;;;;;;;9.25;9.25;;;;;11.92;68.92;102669.25;6312475;22;45485;-81
2022/11/11 02:27:20;;;;;;;;;16.00;13.25;;;;;11.57;68.88;102611.28;6340883;22;45426;-80
2022/11/11 02:29:49;;;;;;;;;13.50;11.75;;;;;11.80;68.54;102651.38;6341253;22;45151;-81
2022/11/11 02:32:14;;;;;;;;;6.50;6.50;;;;;11.76;68.75;102646.91;6339197;22;45283;-81
2022/11/11 02:34:40;;;;;;;;;12.25;8.50;;;;;11.73;68.50;102633.63;6313036;22;45901;-81
2022/11/11 02:37:07;;;;;;;;;10.00;9.50;;;;;11.62;68.81;102614.91;6312481;22;48038;-81
2022/11/11 02:39:36;;;;;;;;;8.75;7.25;;;;;12.01;68.83;102677.38;6340891;22;45347;-80
2022/11/11 02:42:08;;;;;;;;;9.50;8.75;;;;;11.66;68.75;102616.78;6341000;22;45156;-81
2022/11/11 02:44:34;;;;;;;;;11.00;9.75;;;;;11.79;68.37;102649.59;6312246;22;45424;-81
2022/11/11 02:47:00;;;;;;;;;9.50;7.25;;;;;11.70;68.48;102634.44;6340454;22;46872;-80
2022/11/11 02:49:25;;;;;;;;;12.50;11.00;;;;;11.73;68.20;102641.53;6312786;22;45167;-80
2022/11/11 02:51:51;;;;;;;;;15.25;11.00;;;;;11.75;68.55;102647.75;6338988;22;45176;-81
2022/11/11 02:54:16;;;;;;;;;11.25;8.50;;;;;11.75;68.46;102638.94;6312633;22;45535;-81
2022/11/11 02:59:42;;;;;;;;;7.00;7.00;;;;;11.85;68.52;102643.56;6341078;22;45469;-82
2022/11/11 03:02:17;;;;;;;;;8.50;7.75;;;;;11.75;68.34;102638.94;6338501;22;45310;-83
2022/11/11 03:04:45;;;;;;;;;9.25;8.50;;;;;11.54;68.26;102611.22;6312216;22;45516;-82
2022/11/11 03:07:10;;;;;;;;;9.00;8.25;;;;;11.59;68.36;102620.13;6312481;22;47409;-80
2022/11/11 03:09:35;;;;;;;;;7.50;7.50;;;;;11.74;68.27;102666.19;6312640;22;45341;-80
2022/11/11 03:12:01;;;;;;;;;9.50;9.50;;;;;11.74;68.08;102664.44;6341105;22;45151;-80
2022/11/11 03:14:57;;;;;;;;;7.50;7.50;;;;;11.75;68.25;102671.50;6340927;22;45206;-86
2022/11/11 03:23:06;;;;;;;;;10.50;8.25;;;;;11.59;68.43;102675.53;6340761;22;45167;-80
2022/11/11 03:25:39;;;;;;;;;11.25;10.00;;;;;11.29;68.55;102619.44;6340527;22;45481;-80
2022/11/11 03:28:10;;;;;;;;;6.50;6.50;;;;;11.60;68.71;102677.31;6341047;22;45619;-81
2022/11/11 03:30:39;;;;;;;;;14.75;11.25;;;;;11.43;68.52;102652.28;6338623;22;45186;-80
2022/11/11 03:33:07;;;;;;;;;11.25;8.00;;;;;11.19;68.68;102613.03;6311755;22;45330;-81
2022/11/11 03:35:34;;;;;;;;;12.00;11.00;;;;;11.53;68.94;102674.50;6340277;22;45471;-81
2022/11/11 03:38:15;;;;;;;;;13.25;11.25;;;;;11.54;69.15;102673.63;6340857;22;45341;-81
2022/11/11 03:40:47;;;;;;;;;13.50;11.00;;;;;11.45;69.12;102667.28;6340475;22;45388;-81
2022/11/11 03:43:15;;;;;;;;;13.75;11.25;;;;;11.41;68.79;102657.53;6340397;22;45094;-84
2022/11/11 03:45:41;;;;;;;;;10.25;10.25;;;;;11.52;69.21;102685.88;6338327;22;45618;-84
2022/11/11 03:48:07;;;;;;;;;13.00;12.00;;;;;11.09;68.81;102608.41;6312045;22;46071;-84
2022/11/11 03:50:33;;;;;;;;;12.25;12.00;;;;;11.08;68.88;102609.25;6340781;22;45487;-84
2022/11/11 03:53:26;;;;;;;;;14.00;13.50;;;;;11.09;69.22;102611.03;6338607;22;45345;-81
2022/11/11 03:56:15;;;;;;;;;16.75;11.75;;;;;11.02;69.29;102612.66;6337689;22;45384;-82
2022/11/11 03:58:40;;;;;;;;;11.75;10.75;;;;;11.42;69.60;102685.69;6311015;22;46825;-82
2022/11/11 04:10:21;;;;;;;;;10.50;10.50;;;;;11.12;69.38;102638.38;6337159;22;45190;-83
2022/11/11 04:16:29;;;;;;;;;15.25;13.50;;;;;11.23;69.26;102665.88;6339975;22;45253;-82
2022/11/11 04:21:41;;;;;;;;;11.50;10.00;;;;;11.44;69.42;102698.88;6331718;22;45294;-82
2022/11/11 04:26:54;;;;;;;;;11.75;10.50;;;;;11.37;69.10;102675.88;6340188;22;45262;-82
2022/11/11 04:29:30;;;;;;;;;12.25;12.25;;;;;11.52;69.32;102709.63;6311534;22;45611;-82
2022/11/11 04:35:06;;;;;;;;;12.50;11.75;;;;;11.06;69.04;102643.47;6340102;22;45272;-81
2022/11/11 04:37:34;;;;;;;;;12.75;12.25;;;;;11.09;69.20;102638.28;6311647;22;45292;-81
2022/11/11 04:42:44;;;;;;;;;12.00;11.75;;;;;11.28;69.30;102658.09;6339856;22;45399;-81
2022/11/11 04:45:27;;;;;;;;;11.25;10.25;;;;;11.12;69.05;102633.09;6312387;22;45199;-81
2022/11/11 04:48:02;;;;;;;;;10.50;10.00;;;;;11.40;69.07;102679.47;6341783;22;45432;-81
2022/11/11 04:50:33;;;;;;;;;15.00;13.50;;;;;11.08;69.00;102625.06;6313021;22;45460;-81
2022/11/11 04:52:59;;;;;;;;;8.25;7.25;;;;;11.53;69.07;102700.88;6338798;22;47350;-81
2022/11/11 04:58:16;;;;;;;;;14.25;12.25;;;;;11.38;69.46;102669.75;6341486;22;45242;-81
2022/11/11 05:00:41;;;;;;;;;14.00;13.75;;;;;11.46;68.92;102678.72;6339247;22;45448;-82
2022/11/11 05:03:15;;;;;;;;;9.75;9.75;;;;;11.25;68.88;102642.19;6338313;22;46778;-81
2022/11/11 05:08:56;;;;;;;;;14.00;12.00;;;;;11.48;69.12;102682.28;6341730;22;45144;-81
2022/11/11 05:11:23;;;;;;;;;14.50;13.00;;;;;11.43;68.96;102660.19;6341464;22;45380;-81
2022/11/11 05:22:28;;;;;;;;;11.75;11.00;;;;;11.46;69.03;102687.53;6340819;22;45528;-83
2022/11/11 05:27:39;;;;;;;;;10.75;10.75;;;;;11.48;68.94;102682.28;6341292;22;45440;-82
2022/11/11 05:30:07;;;;;;;;;13.00;12.00;;;;;11.41;69.11;102681.28;6341213;22;45223;-82
2022/11/11 05:32:32;;;;;;;;;13.00;12.00;;;;;11.32;68.93;102661.69;6340570;22;45376;-82
2022/11/11 05:34:58;;;;;;;;;8.50;8.00;;;;;11.27;69.10;102641.34;6312674;22;46972;-82
2022/11/11 05:37:23;;;;;;;;;12.00;10.75;;;;;11.46;69.19;102686.63;6340668;22;45372;-83
2022/11/11 05:39:49;;;;;;;;;10.75;9.25;;;;;11.48;68.95;102695.47;6313070;22;45302;-82
2022/11/11 05:42:15;;;;;;;;;10.00;8.25;;;;;11.48;68.69;102684.94;6338903;22;45700;-83
2022/11/11 05:44:40;;;;;;;;;12.75;11.75;;;;;11.18;68.79;102622.69;6341529;22;45387;-83
2022/11/11 05:47:06;;;;;;;;;14.00;11.50;;;;;11.34;69.03;102650.31;6312129;22;45293;-83
2022/11/11 05:49:32;;;;;;;;;13.00;11.75;;;;;11.27;68.78;102643.13;6313000;22;45228;-82
2022/11/11 05:51:58;;;;;;;;;13.75;12.25;;;;;11.48;68.82;102688.47;6341204;22;45195;-82
2022/11/11 05:54:23;;;;;;;;;10.25;8.50;;;;;11.25;68.69;102639.53;6312950;22;47676;-82
2022/11/11 05:56:49;;;;;;;;;13.25;12.00;;;;;11.46;69.13;102678.72;6312629;22;45328;-83
2022/11/11 05:59:15;;;;;;;;;11.25;7.50;;;;;11.31;69.05;102658.16;6313122;22;45185;-83
2022/11/11 06:01:41;;;;;;;;;11.00;11.00;;;;;11.31;68.80;102662.56;6340822;22;45483;-83
2022/11/11 06:04:07;;;;;;;;;10.50;9.25;;;;;11.34;68.90;102674.06;6312440;22;46877;-83
2022/11/11 06:06:33;;;;;;;;;11.50;11.00;;;;;11.18;68.94;102645.53;6341335;22;45356;-82
2022/11/11 06:08:59;;;;;;;;;11.00;10.75;;;;;11.42;68.71;102676.88;6338528;22;45334;-82
2022/11/11 06:11:26;;;;;;;;;11.50;11.00;;;;;11.32;68.45;102659.94;6341325;22;45348;-82
2022/11/11 06:13:54;;;;;;;;;11.75;10.50;;;;;11.18;68.37;102630.59;6312971;22;47775;-82
2022/11/11 06:16:20;;;;;;;;;15.00;12.00;;;;;11.49;68.79;102691.97;6337165;22;45602;-82
2022/11/11 06:18:51;;;;;;;;;16.00;12.25;;;;;11.37;68.41;102670.59;6341193;22;45316;-82
2022/11/11 06:21:22;;;;;;;;;10.75;10.00;;;;;11.45;68.96;102692.78;6312097;22;45292;-82
2022/11/11 06:23:50;;;;;;;;;12.50;10.75;;;;;11.45;68.36;102700.69;6312768;22;47663;-82
2022/11/11 06:26:15;;;;;;;;;14.00;13.25;;;;;11.07;68.90;102636.50;6313050;22;45365;-83
2022/11/11 06:28:46;;;;;;;;;11.25;10.50;;;;;11.06;68.86;102637.31;6312378;22;45261;-82
2022/11/11 06:31:15;;;;;;;;;11.50;8.75;;;;;11.22;68.93;102663.19;6312452;22;45386;-81
2022/11/11 06:33:41;;;;;;;;;14.00;11.75;;;;;11.32;68.89;102674.88;6312660;22;46049;-82
2022/11/11 06:36:12;;;;;;;;;12.25;9.00;;;;;11.36;68.79;102696.09;6312222;22;45232;-82
2022/11/11 06:38:37;;;;;;;;;14.25;13.25;;;;;11.24;68.94;102672.94;6341025;22;45254;-81
2022/11/11 06:41:04;;;;;;;;;11.50;10.50;;;;;11.45;68.92;102720.03;6338815;22;45451;-82
2022/11/11 06:43:30;;;;;;;;;12.00;12.00;;;;;11.39;68.56;102714.63;6341112;22;45310;-82
2022/11/11 06:45:58;;;;;;;;;10.25;9.25;;;;;11.24;68.35;102690.50;6338783;22;45386;-82
2022/11/11 06:48:26;;;;;;;;;10.50;9.25;;;;;11.41;68.67;102726.09;6312904;22;45211;-83
2022/11/11 06:50:52;;;;;;;;;13.50;13.00;;;;;11.09;68.40;102680.44;6312251;22;45285;-81
2022/11/11 06:53:19;;;;;;;;;9.50;8.50;;;;;11.34;68.47;102729.44;6312340;22;48081;-82
2022/11/11 06:55:50;;;;;;;;;9.75;8.25;;;;;11.39;68.41;102735.72;6312413;22;45277;-81
2022/11/11 06:58:18;;;;;;;;;11.75;9.00;;;;;11.39;68.56;102741.00;6312884;22;45486;-82
2022/11/11 07:00:45;;;;;;;;;11.50;9.50;;;;;11.23;68.61;102723.91;6340842;22;45342;-82
2022/11/11 07:03:18;;;;;;;;;12.75;11.75;;;;;11.27;68.79;102716.94;6311974;22;46770;-82
2022/11/11 07:05:44;;;;;;;;;10.75;10.75;;;;;11.19;68.56;102703.56;6337765;22;45307;-82
2022/11/11 07:08:16;;;;;;;;;12.25;11.75;;;;;11.24;68.60;102706.31;6340439;22;45253;-81
2022/11/11 07:10:47;;;;;;;;;13.00;12.00;;;;;11.31;68.67;102734.63;6340826;22;45261;-81
2022/11/11 07:13:16;;;;;;;;;10.25;10.25;;;;;11.08;68.69;102683.06;6340324;22;45356;-81
2022/11/11 07:15:42;;;;;;;;;9.25;9.25;;;;;11.27;68.58;102715.19;6311933;22;45917;-78
2022/11/11 07:18:08;;;;;;;;;12.00;8.75;;;;;11.25;68.73;102708.09;6340898;22;45421;-79
2022/11/11 07:20:35;;;;;;;;;7.50;6.25;;;;;11.33;68.76;102716.19;6340191;22;45475;-78
2022/11/11 07:23:00;;;;;;;;;9.50;8.00;;;;;11.22;68.83;102700.09;6338638;22;47437;-78
2022/11/11 07:25:29;;;;;;;;;7.75;7.00;;;;;11.31;68.77;102702.09;6340775;22;45201;-79
2022/11/11 07:58:36;;;;;;;;;10.00;10.00;;;;;11.23;69.05;102652.72;5839844;24;45513;-81
2022/11/11 08:29:33;;;;;;;;;12.75;9.75;;;;;12.10;68.50;102738.28;6003254;23;45766;-86
2022/11/11 09:15:29;;;;;;;;;12.75;11.00;;;;;12.25;67.53;102750.06;6064955;23;45394;-82
2022/11/11 17:05:01;;;;;;;;;18.25;17.25;;;;;14.41;58.04;102586.00;6292671;22;45883;-78
2022/11/11 17:11:06;;;;;;;;;13.00;13.00;;;;;14.21;58.30;102576.06;6339854;22;45487;-78
2022/11/11 17:13:35;;;;;;;;;19.50;16.75;;;;;14.26;58.46;102590.25;6306221;22;45302;-77
2022/11/11 18:59:03;;;;;;;;;20.00;19.25;;;;;13.42;64.48;102658.88;6127450;22;45621;-83
2022/11/11 19:49:29;;;;;;;;;79.25;66.50;;;;;13.19;66.06;102663.75;6288878;22;46934;-83
2022/11/11 20:00:03;;;;;;;;;;;;;;;;;;;;;
2022/11/11 22:39:40;;;;;;;;;52.75;44.75;;;;;11.20;69.37;102617.44;6128844;22;45370;-80
2022/11/11 23:41:52;;;;;;;;;;;;;;;;;;;;;
2022/11/11 23:44:46;;;;;;;;;49.75;39.75;;;;;10.88;70.33;102629.84;6100628;23;72960;-79
2022/11/11 23:47:39;;;;;;;;;;;;;;;;;;;;;
2022/11/11 23:50:20;;;;;;;;;;;;;;;;;;;;;
2022/11/11 23:53:19;;;;;;;;;;;;;;;;;;;;;
